sensor_id;sensor_type;location;lat;lon;timestamp;pressure;altitude;pressure_sealevel;temperature;humidity
5574;BME280;2563;52.242;7.956;2023-02-13T00:01:07;102890.59;;;7.10;100.00
5574;BME280;2563;52.242;7.956;2023-02-13T00:03:33;102899.06;;;7.07;100.00
5574;BME280;2563;52.242;7.956;2023-02-13T00:05:58;102902.53;;;7.09;100.00
5574;BME280;2563;52.242;7.956;2023-02-13T00:08:24;102891.44;;;7.10;100.00
5574;BME280;2563;52.242;7.956;2023-02-13T00:10:49;102892.56;;;7.18;100.00
5574;BME280;2563;52.242;7.956;2023-02-13T00:13:15;102888.19;;;7.16;100.00
5574;BME280;2563;52.242;7.956;2023-02-13T00:15:40;102887.44;;;7.18;100.00
5574;BME280;2563;52.242;7.956;2023-02-13T00:18:06;102888.38;;;7.22;100.00
5574;BME280;2563;52.242;7.956;2023-02-13T00:20:31;102886.66;;;7.21;100.00
5574;BME280;2563;52.242;7.956;2023-02-13T00:22:58;102883.16;;;7.19;100.00
5574;BME280;2563;52.242;7.956;2023-02-13T00:25:23;102888.44;;;7.25;100.00
5574;BME280;2563;52.242;7.956;2023-02-13T00:27:50;102893.56;;;7.25;100.00
5574;BME280;2563;52.242;7.956;2023-02-13T00:30:16;102888.63;;;7.31;100.00
5574;BME280;2563;52.242;7.956;2023-02-13T00:32:41;102879.22;;;7.32;100.00
5574;BME280;2563;52.242;7.956;2023-02-13T00:35:07;102883.50;;;7.31;100.00
5574;BME280;2563;52.242;7.956;2023-02-13T00:37:32;102886.00;;;7.28;100.00
5574;BME280;2563;52.242;7.956;2023-02-13T00:39:58;102883.50;;;7.31;100.00
5574;BME280;2563;52.242;7.956;2023-02-13T00:42:23;102884.34;;;7.32;100.00
5574;BME280;2563;52.242;7.956;2023-02-13T00:44:51;102884.44;;;7.35;100.00
5574;BME280;2563;52.242;7.956;2023-02-13T00:47:17;102885.22;;;7.32;100.00
5574;BME280;2563;52.242;7.956;2023-02-13T00:49:42;102886.00;;;7.30;100.00
5574;BME280;2563;52.242;7.956;2023-02-13T00:52:08;102881.75;;;7.30;100.00
5574;BME280;2563;52.242;7.956;2023-02-13T00:54:33;102882.59;;;7.29;100.00
5574;BME280;2563;52.242;7.956;2023-02-13T00:56:58;102890.28;;;7.29;100.00
5574;BME280;2563;52.242;7.956;2023-02-13T00:59:24;102892.88;;;7.31;100.00
5574;BME280;2563;52.242;7.956;2023-02-13T01:01:49;102892.09;;;7.33;100.00
5574;BME280;2563;52.242;7.956;2023-02-13T01:04:14;102896.44;;;7.36;100.00
5574;BME280;2563;52.242;7.956;2023-02-13T01:06:40;102887.91;;;7.37;100.00
5574;BME280;2563;52.242;7.956;2023-02-13T01:09:05;102891.44;;;7.40;100.00
5574;BME280;2563;52.242;7.956;2023-02-13T01:11:31;102888.03;;;7.41;100.00
5574;BME280;2563;52.242;7.956;2023-02-13T01:13:56;102890.53;;;7.38;100.00
5574;BME280;2563;52.242;7.956;2023-02-13T01:16:22;102897.38;;;7.39;100.00
5574;BME280;2563;52.242;7.956;2023-02-13T01:18:47;102895.66;;;7.38;100.00
5574;BME280;2563;52.242;7.956;2023-02-13T01:21:18;102888.78;;;7.37;100.00
5574;BME280;2563;52.242;7.956;2023-02-13T01:23:44;102893.91;;;7.37;100.00
5574;BME280;2563;52.242;7.956;2023-02-13T01:26:15;102888.81;;;7.39;100.00
5574;BME280;2563;52.242;7.956;2023-02-13T01:28:41;102896.47;;;7.37;100.00
5574;BME280;2563;52.242;7.956;2023-02-13T01:31:06;102887.03;;;7.36;100.00
5574;BME280;2563;52.242;7.956;2023-02-13T01:33:32;102891.25;;;7.33;100.00
5574;BME280;2563;52.242;7.956;2023-02-13T01:35:57;102888.63;;;7.31;100.00
5574;BME280;2563;52.242;7.956;2023-02-13T01:38:24;102888.63;;;7.31;100.00
5574;BME280;2563;52.242;7.956;2023-02-13T01:40:51;102889.47;;;7.32;100.00
5574;BME280;2563;52.242;7.956;2023-02-13T01:43:18;102892.09;;;7.33;100.00
5574;BME280;2563;52.242;7.956;2023-02-13T01:45:46;102888.78;;;7.37;100.00
5574;BME280;2563;52.242;7.956;2023-02-13T01:48:18;102895.66;;;7.38;100.00
5574;BME280;2563;52.242;7.956;2023-02-13T01:53:24;102887.03;;;7.36;100.00
5574;BME280;2563;52.242;7.956;2023-02-13T01:55:57;102881.84;;;7.33;100.00
5574;BME280;2563;52.242;7.956;2023-02-13T01:58:26;102886.19;;;7.36;100.00
5574;BME280;2563;52.242;7.956;2023-02-13T02:00:53;102887.03;;;7.36;100.00
5574;BME280;2563;52.242;7.956;2023-02-13T02:03:23;102883.66;;;7.37;100.00
5574;BME280;2563;52.242;7.956;2023-02-13T02:05:52;102878.50;;;7.36;100.00
5574;BME280;2563;52.242;7.956;2023-02-13T02:08:19;102874.16;;;7.33;100.00
5574;BME280;2563;52.242;7.956;2023-02-13T02:10:45;102881.84;;;7.33;100.00
5574;BME280;2563;52.242;7.956;2023-02-13T02:13:12;102882.66;;;7.32;100.00
5574;BME280;2563;52.242;7.956;2023-02-13T02:15:38;102885.22;;;7.32;100.00
5574;BME280;2563;52.242;7.956;2023-02-13T02:18:15;102878.25;;;7.27;100.00
5574;BME280;2563;52.242;7.956;2023-02-13T02:29:50;102888.44;;;7.25;100.00
5574;BME280;2563;52.242;7.956;2023-02-13T02:35:27;102879.94;;;7.26;100.00
5574;BME280;2563;52.242;7.956;2023-02-13T02:43:06;102884.09;;;7.22;100.00
5574;BME280;2563;52.242;7.956;2023-02-13T02:48:29;102878.13;;;7.22;100.00
5574;BME280;2563;52.242;7.956;2023-02-13T02:51:23;102862.75;;;7.22;100.00
5574;BME280;2563;52.242;7.956;2023-02-13T02:57:06;102865.31;;;7.22;100.00
5574;BME280;2563;52.242;7.956;2023-02-13T02:59:35;102873.84;;;7.21;100.00
5574;BME280;2563;52.242;7.956;2023-02-13T03:02:21;102860.06;;;7.17;100.00
5574;BME280;2563;52.242;7.956;2023-02-13T03:05:16;102859.19;;;7.17;100.00
5574;BME280;2563;52.242;7.956;2023-02-13T03:08:02;102859.19;;;7.17;100.00
5574;BME280;2563;52.242;7.956;2023-02-13T03:10:31;102866.03;;;7.18;100.00
5574;BME280;2563;52.242;7.956;2023-02-13T03:13:41;102859.19;;;7.17;100.00
5574;BME280;2563;52.242;7.956;2023-02-13T03:16:16;102854.00;;;7.14;100.00
5574;BME280;2563;52.242;7.956;2023-02-13T03:19:02;102853.03;;;7.10;100.00
5574;BME280;2563;52.242;7.956;2023-02-13T03:27:23;102853.81;;;7.08;100.00
5574;BME280;2563;52.242;7.956;2023-02-13T03:33:00;102858.88;;;7.05;100.00
5574;BME280;2563;52.242;7.956;2023-02-13T03:41:37;102851.88;;;6.99;100.00
5574;BME280;2563;52.242;7.956;2023-02-13T03:44:10;102864.72;;;7.00;100.00
5574;BME280;2563;52.242;7.956;2023-02-13T03:46:40;102869.00;;;7.01;100.00
5574;BME280;2563;52.242;7.956;2023-02-13T03:49:20;102863.88;;;7.01;100.00
5574;BME280;2563;52.242;7.956;2023-02-13T03:52:12;102863.88;;;7.00;100.00
5574;BME280;2563;52.242;7.956;2023-02-13T03:54:43;102864.72;;;7.00;100.00
5574;BME280;2563;52.242;7.956;2023-02-13T03:57:31;102862.16;;;7.00;100.00
5574;BME280;2563;52.242;7.956;2023-02-13T04:00:16;102851.91;;;7.00;100.00
5574;BME280;2563;52.242;7.956;2023-02-13T04:05:31;102860.25;;;6.93;100.00
5574;BME280;2563;52.242;7.956;2023-02-13T04:08:00;102860.31;;;6.95;100.00
5574;BME280;2563;52.242;7.956;2023-02-13T04:10:29;102862.00;;;6.94;100.00
5574;BME280;2563;52.242;7.956;2023-02-13T04:15:57;102855.25;;;6.98;100.00
5574;BME280;2563;52.242;7.956;2023-02-13T04:18:29;102862.16;;;7.00;100.00
5574;BME280;2563;52.242;7.956;2023-02-13T04:20:59;102856.13;;;6.98;100.00
5574;BME280;2563;52.242;7.956;2023-02-13T04:23:25;102856.97;;;6.99;100.00
5574;BME280;2563;52.242;7.956;2023-02-13T04:25:53;102848.53;;;7.01;100.00
5574;BME280;2563;52.242;7.956;2023-02-13T04:28:19;102855.41;;;7.02;100.00
5574;BME280;2563;52.242;7.956;2023-02-13T04:30:45;102854.53;;;7.02;100.00
5574;BME280;2563;52.242;7.956;2023-02-13T04:33:10;102850.19;;;6.99;100.00
5574;BME280;2563;52.242;7.956;2023-02-13T04:35:35;102849.31;;;6.99;100.00
5574;BME280;2563;52.242;7.956;2023-02-13T04:38:01;102845.06;;;6.99;100.00
5574;BME280;2563;52.242;7.956;2023-02-13T04:40:27;102853.56;;;6.98;100.00
5574;BME280;2563;52.242;7.956;2023-02-13T04:42:52;102874.88;;;6.97;100.00
5574;BME280;2563;52.242;7.956;2023-02-13T04:45:17;102882.56;;;6.97;100.00
5574;BME280;2563;52.242;7.956;2023-02-13T04:47:49;102879.16;;;6.98;100.00
5574;BME280;2563;52.242;7.956;2023-02-13T04:50:15;102874.88;;;6.97;100.00
5574;BME280;2563;52.242;7.956;2023-02-13T04:52:40;102866.34;;;6.97;100.00
5574;BME280;2563;52.242;7.956;2023-02-13T04:55:06;102872.31;;;6.97;100.00
5574;BME280;2563;52.242;7.956;2023-02-13T04:57:31;102864.59;;;6.96;100.00
5574;BME280;2563;52.242;7.956;2023-02-13T04:59:57;102863.72;;;6.95;100.00
5574;BME280;2563;52.242;7.956;2023-02-13T05:02:22;102869.78;;;6.97;100.00
5574;BME280;2563;52.242;7.956;2023-02-13T05:04:47;102862.03;;;6.96;100.00
5574;BME280;2563;52.242;7.956;2023-02-13T05:07:13;102855.13;;;6.93;100.00
5574;BME280;2563;52.242;7.956;2023-02-13T05:09:38;102862.00;;;6.94;100.00
5574;BME280;2563;52.242;7.956;2023-02-13T05:12:03;102867.13;;;6.94;100.00
5574;BME280;2563;52.242;7.956;2023-02-13T05:14:29;102856.88;;;6.94;100.00
5574;BME280;2563;52.242;7.956;2023-02-13T05:16:54;102862.00;;;6.94;100.00
5574;BME280;2563;52.242;7.956;2023-02-13T05:19:20;102859.44;;;6.94;100.00
5574;BME280;2563;52.242;7.956;2023-02-13T05:21:45;102855.13;;;6.93;100.00
5574;BME280;2563;52.242;7.956;2023-02-13T05:24:29;102856.88;;;6.94;100.00
5574;BME280;2563;52.242;7.956;2023-02-13T05:26:54;102859.41;;;6.93;100.00
5574;BME280;2563;52.242;7.956;2023-02-13T05:29:20;102855.91;;;6.91;100.00
5574;BME280;2563;52.242;7.956;2023-02-13T05:31:55;102860.25;;;6.93;100.00
5574;BME280;2563;52.242;7.956;2023-02-13T05:34:22;102858.53;;;6.92;100.00
5574;BME280;2563;52.242;7.956;2023-02-13T05:36:48;102855.97;;;6.92;100.00
5574;BME280;2563;52.242;7.956;2023-02-13T05:39:14;102853.34;;;6.91;100.00
5574;BME280;2563;52.242;7.956;2023-02-13T05:41:40;102846.53;;;6.91;100.00
5574;BME280;2563;52.242;7.956;2023-02-13T05:44:06;102854.22;;;6.91;100.00
5574;BME280;2563;52.242;7.956;2023-02-13T05:46:31;102857.69;;;6.93;100.00
5574;BME280;2563;52.242;7.956;2023-02-13T05:48:57;102854.28;;;6.93;100.00
5574;BME280;2563;52.242;7.956;2023-02-13T05:51:22;102853.41;;;6.92;100.00
5574;BME280;2563;52.242;7.956;2023-02-13T05:53:48;102858.53;;;6.92;100.00
5574;BME280;2563;52.242;7.956;2023-02-13T05:56:13;102852.50;;;6.90;100.00
5574;BME280;2563;52.242;7.956;2023-02-13T05:58:38;102854.13;;;6.88;100.00
5574;BME280;2563;52.242;7.956;2023-02-13T06:01:04;102857.56;;;6.89;100.00
5574;BME280;2563;52.242;7.956;2023-02-13T06:03:31;102859.25;;;6.88;100.00
5574;BME280;2563;52.242;7.956;2023-02-13T06:05:57;102863.53;;;6.89;100.00
5574;BME280;2563;52.242;7.956;2023-02-13T06:08:24;102861.81;;;6.88;100.00
5574;BME280;2563;52.242;7.956;2023-02-13T06:10:51;102867.81;;;6.89;100.00
5574;BME280;2563;52.242;7.956;2023-02-13T06:13:17;102868.63;;;6.88;100.00
5574;BME280;2563;52.242;7.956;2023-02-13T06:15:43;102864.38;;;6.88;100.00
5574;BME280;2563;52.242;7.956;2023-02-13T06:18:09;102863.47;;;6.86;100.00
5574;BME280;2563;52.242;7.956;2023-02-13T06:20:35;102865.09;;;6.84;100.00
5574;BME280;2563;52.242;7.956;2023-02-13T06:23:01;102866.81;;;6.84;100.00
5574;BME280;2563;52.242;7.956;2023-02-13T06:25:26;102860.81;;;6.83;100.00
5574;BME280;2563;52.242;7.956;2023-02-13T06:27:53;102851.44;;;6.84;100.00
5574;BME280;2563;52.242;7.956;2023-02-13T06:30:19;102854.00;;;6.84;100.00
5574;BME280;2563;52.242;7.956;2023-02-13T06:32:47;102853.16;;;6.83;100.00
5574;BME280;2563;52.242;7.956;2023-02-13T06:35:13;102849.66;;;6.81;100.00
5574;BME280;2563;52.242;7.956;2023-02-13T06:37:40;102855.66;;;6.81;100.00
5574;BME280;2563;52.242;7.956;2023-02-13T06:40:09;102856.44;;;6.79;100.00
5574;BME280;2563;52.242;7.956;2023-02-13T06:42:34;102858.13;;;6.78;100.00
5574;BME280;2563;52.242;7.956;2023-02-13T06:45:00;102854.72;;;6.78;100.00
5574;BME280;2563;52.242;7.956;2023-02-13T06:47:25;102851.25;;;6.76;100.00
5574;BME280;2563;52.242;7.956;2023-02-13T06:49:50;102864.03;;;6.76;100.00
5574;BME280;2563;52.242;7.956;2023-02-13T06:52:16;102856.34;;;6.76;100.00
5574;BME280;2563;52.242;7.956;2023-02-13T06:54:41;102856.34;;;6.76;100.00
5574;BME280;2563;52.242;7.956;2023-02-13T06:57:07;102858.06;;;6.75;100.00
5574;BME280;2563;52.242;7.956;2023-02-13T06:59:32;102871.66;;;6.74;100.00
5574;BME280;2563;52.242;7.956;2023-02-13T07:01:57;102868.25;;;6.74;100.00
5574;BME280;2563;52.242;7.956;2023-02-13T07:04:23;102868.25;;;6.74;100.00
5574;BME280;2563;52.242;7.956;2023-02-13T07:06:48;102870.84;;;6.75;100.00
5574;BME280;2563;52.242;7.956;2023-02-13T07:09:13;102881.13;;;6.77;100.00
5574;BME280;2563;52.242;7.956;2023-02-13T07:11:39;102886.28;;;6.78;100.00
5574;BME280;2563;52.242;7.956;2023-02-13T07:14:08;102882.03;;;6.79;100.00
5574;BME280;2563;52.242;7.956;2023-02-13T07:16:34;102870.06;;;6.78;100.00
5574;BME280;2563;52.242;7.956;2023-02-13T07:18:59;102876.91;;;6.79;100.00
5574;BME280;2563;52.242;7.956;2023-02-13T07:21:24;102877.78;;;6.79;100.00
5574;BME280;2563;52.242;7.956;2023-02-13T07:23:50;102894.06;;;6.81;100.00
5574;BME280;2563;52.242;7.956;2023-02-13T07:26:16;102888.13;;;6.82;100.00
5574;BME280;2563;52.242;7.956;2023-02-13T07:28:41;102887.22;;;6.82;100.00
5574;BME280;2563;52.242;7.956;2023-02-13T07:31:07;102887.28;;;6.84;100.00
5574;BME280;2563;52.242;7.956;2023-02-13T07:33:33;102884.72;;;6.84;100.00
5574;BME280;2563;52.242;7.956;2023-02-13T07:35:58;102886.44;;;6.85;100.00
5574;BME280;2563;52.242;7.956;2023-02-13T07:38:25;102889.06;;;6.86;100.00
5574;BME280;2563;52.242;7.956;2023-02-13T07:40:50;102884.00;;;6.88;100.00
5574;BME280;2563;52.242;7.956;2023-02-13T07:43:15;102897.75;;;6.91;100.00
5574;BME280;2563;52.242;7.956;2023-02-13T07:45:41;102896.09;;;6.93;100.00
5574;BME280;2563;52.242;7.956;2023-02-13T07:48:06;102889.38;;;6.97;100.00
5574;BME280;2563;52.242;7.956;2023-02-13T07:50:31;102898.00;;;7.00;100.00
5574;BME280;2563;52.242;7.956;2023-02-13T07:52:59;102893.03;;;7.05;100.00
5574;BME280;2563;52.242;7.956;2023-02-13T07:55:25;102885.41;;;7.07;100.00
5574;BME280;2563;52.242;7.956;2023-02-13T07:57:51;102882.06;;;7.11;100.00
5574;BME280;2563;52.242;7.956;2023-02-13T08:00:17;102884.81;;;7.17;100.00
5574;BME280;2563;52.242;7.956;2023-02-13T08:02:43;102881.53;;;7.21;100.00
5574;BME280;2563;52.242;7.956;2023-02-13T08:05:09;102887.56;;;7.24;100.00
5574;BME280;2563;52.242;7.956;2023-02-13T08:07:35;102870.50;;;7.25;100.00
5574;BME280;2563;52.242;7.956;2023-02-13T08:10:00;102862.94;;;7.28;100.00
5574;BME280;2563;52.242;7.956;2023-02-13T08:12:44;102862.22;;;7.34;100.00
5574;BME280;2563;52.242;7.956;2023-02-13T08:15:11;102859.84;;;7.41;100.00
5574;BME280;2563;52.242;7.956;2023-02-13T08:17:37;102861.75;;;7.49;100.00
5574;BME280;2563;52.242;7.956;2023-02-13T08:20:02;102853.31;;;7.53;100.00
5574;BME280;2563;52.242;7.956;2023-02-13T08:22:28;102856.84;;;7.58;100.00
5574;BME280;2563;52.242;7.956;2023-02-13T08:24:53;102840.69;;;7.60;100.00
5574;BME280;2563;52.242;7.956;2023-02-13T08:27:18;102831.47;;;7.67;100.00
5574;BME280;2563;52.242;7.956;2023-02-13T08:29:44;102824.69;;;7.69;100.00
5574;BME280;2563;52.242;7.956;2023-02-13T08:32:09;102827.38;;;7.75;100.00
5574;BME280;2563;52.242;7.956;2023-02-13T08:34:35;102818.03;;;7.77;100.00
5574;BME280;2563;52.242;7.956;2023-02-13T08:37:01;102806.06;;;7.76;100.00
5574;BME280;2563;52.242;7.956;2023-02-13T08:39:26;102806.19;;;7.82;100.00
5574;BME280;2563;52.242;7.956;2023-02-13T08:41:52;102791.59;;;7.80;100.00
5574;BME280;2563;52.242;7.956;2023-02-13T08:44:17;102794.16;;;7.80;100.00
5574;BME280;2563;52.242;7.956;2023-02-13T08:46:42;102791.63;;;7.81;100.00
5574;BME280;2563;52.242;7.956;2023-02-13T08:49:08;102790.78;;;7.82;100.00
5574;BME280;2563;52.242;7.956;2023-02-13T08:51:33;102790.09;;;7.89;100.00
5574;BME280;2563;52.242;7.956;2023-02-13T08:53:59;102796.19;;;7.95;100.00
5574;BME280;2563;52.242;7.956;2023-02-13T08:56:24;102797.25;;;8.03;100.00
5574;BME280;2563;52.242;7.956;2023-02-13T08:58:49;102788.03;;;8.11;100.00
5574;BME280;2563;52.242;7.956;2023-02-13T09:01:15;102788.19;;;8.17;100.00
5574;BME280;2563;52.242;7.956;2023-02-13T09:03:41;102775.31;;;8.16;100.00
5574;BME280;2563;52.242;7.956;2023-02-13T09:06:06;102776.25;;;8.21;100.00
5574;BME280;2563;52.242;7.956;2023-02-13T09:08:33;102771.19;;;8.22;100.00
5574;BME280;2563;52.242;7.956;2023-02-13T09:11:01;102762.72;;;8.26;100.00
5574;BME280;2563;52.242;7.956;2023-02-13T09:13:28;102773.94;;;8.33;100.00
5574;BME280;2563;52.242;7.956;2023-02-13T09:15:58;102763.78;;;8.38;100.00
5574;BME280;2563;52.242;7.956;2023-02-13T09:18:24;102784.34;;;8.39;100.00
5574;BME280;2563;52.242;7.956;2023-02-13T09:20:49;102775.75;;;8.37;100.00
5574;BME280;2563;52.242;7.956;2023-02-13T09:23:14;102790.53;;;8.46;100.00
5574;BME280;2563;52.242;7.956;2023-02-13T09:25:40;102772.41;;;8.40;100.00
5574;BME280;2563;52.242;7.956;2023-02-13T09:28:05;102754.84;;;8.58;100.00
5574;BME280;2563;52.242;7.956;2023-02-13T09:30:30;102755.94;;;8.71;100.00
5574;BME280;2563;52.242;7.956;2023-02-13T09:32:56;102732.03;;;8.75;100.00
5574;BME280;2563;52.242;7.956;2023-02-13T09:35:22;102719.16;;;8.73;100.00
5574;BME280;2563;52.242;7.956;2023-02-13T09:37:48;102723.78;;;8.91;100.00
5574;BME280;2563;52.242;7.956;2023-02-13T09:40:34;102702.50;;;8.99;100.00
5574;BME280;2563;52.242;7.956;2023-02-13T09:43:11;102731.63;;;8.99;100.00
5574;BME280;2563;52.242;7.956;2023-02-13T09:45:37;102716.25;;;9.02;100.00
5574;BME280;2563;52.242;7.956;2023-02-13T09:48:04;102722.50;;;9.15;100.00
5574;BME280;2563;52.242;7.956;2023-02-13T09:50:31;102706.34;;;9.24;100.00
5574;BME280;2563;52.242;7.956;2023-02-13T09:53:01;102677.97;;;9.18;100.00
5574;BME280;2563;52.242;7.956;2023-02-13T09:58:08;102657.16;;;9.02;100.00
5574;BME280;2563;52.242;7.956;2023-02-13T10:00:41;102657.41;;;9.16;100.00
5574;BME280;2563;52.242;7.956;2023-02-13T10:03:22;102657.66;;;9.33;100.00
5574;BME280;2563;52.242;7.956;2023-02-13T10:06:07;102646.66;;;9.43;100.00
5574;BME280;2563;52.242;7.956;2023-02-13T10:08:48;102636.34;;;9.40;100.00
5574;BME280;2563;52.242;7.956;2023-02-13T10:16:50;102612.72;;;9.69;100.00
5574;BME280;2563;52.242;7.956;2023-02-13T10:22:04;102550.78;;;9.50;100.00
5574;BME280;2563;52.242;7.956;2023-02-13T10:24:39;102523.25;;;9.39;100.00
5574;BME280;2563;52.242;7.956;2023-02-13T10:27:25;102541.25;;;9.43;100.00
5574;BME280;2563;52.242;7.956;2023-02-13T10:30:20;102519.88;;;9.44;100.00
5574;BME280;2563;52.242;7.956;2023-02-13T10:36:16;102495.88;;;9.45;100.00
5574;BME280;2563;52.242;7.956;2023-02-13T10:42:10;102478.03;;;9.59;100.00
5574;BME280;2563;52.242;7.956;2023-02-13T10:44:45;102454.75;;;9.45;100.00
5574;BME280;2563;52.242;7.956;2023-02-13T11:03:22;102484.31;;;9.84;100.00
5574;BME280;2563;52.242;7.956;2023-02-13T11:05:49;102479.25;;;9.93;100.00
5574;BME280;2563;52.242;7.956;2023-02-13T11:08:32;102488.69;;;9.91;100.00
5574;BME280;2563;52.242;7.956;2023-02-13T11:10:57;102478.34;;;9.87;100.00
5574;BME280;2563;52.242;7.956;2023-02-13T11:13:28;102475.75;;;9.85;100.00
5574;BME280;2563;52.242;7.956;2023-02-13T11:16:00;102461.06;;;9.76;100.00
5574;BME280;2563;52.242;7.956;2023-02-13T11:18:28;102468.81;;;9.78;100.00
5574;BME280;2563;52.242;7.956;2023-02-13T11:21:22;102457.75;;;9.88;100.00
5574;BME280;2563;52.242;7.956;2023-02-13T11:23:58;102462.09;;;9.92;100.00
5574;BME280;2563;52.242;7.956;2023-02-13T11:26:30;102448.34;;;9.87;100.00
5574;BME280;2563;52.242;7.956;2023-02-13T11:28:59;102447.59;;;9.99;100.00
5574;BME280;2563;52.242;7.956;2023-02-13T11:33:54;102434.72;;;10.00;100.00
5574;BME280;2563;52.242;7.956;2023-02-13T11:36:26;102449.31;;;10.03;100.00
5574;BME280;2563;52.242;7.956;2023-02-13T11:39:12;102460.63;;;10.20;100.00
5574;BME280;2563;52.242;7.956;2023-02-13T11:41:43;102469.38;;;10.41;100.00
5574;BME280;2563;52.242;7.956;2023-02-13T11:46:54;102452.44;;;10.72;100.00
5574;BME280;2563;52.242;7.956;2023-02-13T11:49:23;102432.66;;;10.70;100.00
5574;BME280;2563;52.242;7.956;2023-02-13T11:51:54;102420.69;;;10.73;100.00
5574;BME280;2563;52.242;7.956;2023-02-13T11:56:54;102419.75;;;10.65;100.00
5574;BME280;2563;52.242;7.956;2023-02-13T11:59:25;102401.78;;;10.71;100.00
5574;BME280;2563;52.242;7.956;2023-02-13T12:04:27;102382.06;;;10.76;100.00
5574;BME280;2563;52.242;7.956;2023-02-13T12:07:04;102368.25;;;10.65;100.00
5574;BME280;2563;52.242;7.956;2023-02-13T12:09:36;102347.53;;;10.34;100.00
5574;BME280;2563;52.242;7.956;2023-02-13T12:12:03;102358.75;;;10.47;100.00
5574;BME280;2563;52.242;7.956;2023-02-13T12:14:33;102379.41;;;10.62;100.00
5574;BME280;2563;52.242;7.956;2023-02-13T12:17:05;102382.00;;;10.67;100.00
5574;BME280;2563;52.242;7.956;2023-02-13T12:19:38;102388.97;;;10.85;100.00
5574;BME280;2563;52.242;7.956;2023-02-13T12:28:00;102370.09;;;10.92;100.00
5574;BME280;2563;52.242;7.956;2023-02-13T12:32:56;102358.97;;;11.04;100.00
5574;BME280;2563;52.242;7.956;2023-02-13T12:35:55;102364.16;;;11.22;100.00
5574;BME280;2563;52.242;7.956;2023-02-13T12:41:20;102341.78;;;11.03;100.00
5574;BME280;2563;52.242;7.956;2023-02-13T12:46:47;102334.06;;;11.12;100.00
5574;BME280;2563;52.242;7.956;2023-02-13T12:49:20;102338.38;;;11.22;100.00
5574;BME280;2563;52.242;7.956;2023-02-13T13:14:16;102317.63;;;10.72;100.00
5574;BME280;2563;52.242;7.956;2023-02-13T13:27:19;102310.06;;;12.05;100.00
5574;BME280;2563;52.242;7.956;2023-02-13T13:30:23;102296.28;;;12.19;100.00
5574;BME280;2563;52.242;7.956;2023-02-13T13:32:57;102279.91;;;12.09;100.00
5574;BME280;2563;52.242;7.956;2023-02-13T13:35:24;102269.63;;;12.00;100.00
5574;BME280;2563;52.242;7.956;2023-02-13T13:40:50;102276.47;;;12.24;100.00
5574;BME280;2563;52.242;7.956;2023-02-13T13:43:31;102258.38;;;12.27;100.00
5574;BME280;2563;52.242;7.956;2023-02-13T13:46:12;102269.50;;;12.43;100.00
5574;BME280;2563;52.242;7.956;2023-02-13T13:48:58;102262.56;;;12.49;100.00
5574;BME280;2563;52.242;7.956;2023-02-13T13:51:29;102257.47;;;12.34;100.00
5574;BME280;2563;52.242;7.956;2023-02-13T13:54:23;102258.28;;;12.48;100.00
5574;BME280;2563;52.242;7.956;2023-02-13T14:05:55;102235.63;;;12.90;100.00
5574;BME280;2563;52.242;7.956;2023-02-13T14:07:50;102232.13;;;13.01;100.00
5574;BME280;2563;52.242;7.956;2023-02-13T14:10:57;102205.59;;;12.71;100.00
5574;BME280;2563;52.242;7.956;2023-02-13T14:13:05;102187.78;;;12.28;100.00
5574;BME280;2563;52.242;7.956;2023-02-13T14:20:42;102181.09;;;11.58;100.00
5574;BME280;2563;52.242;7.956;2023-02-13T14:31:28;102184.59;;;10.86;100.00
5574;BME280;2563;52.242;7.956;2023-02-13T14:34:05;102193.16;;;10.76;100.00
5574;BME280;2563;52.242;7.956;2023-02-13T14:36:36;102210.31;;;10.61;100.00
5574;BME280;2563;52.242;7.956;2023-02-13T14:39:29;102205.09;;;10.48;100.00
5574;BME280;2563;52.242;7.956;2023-02-13T14:41:59;102218.81;;;10.43;100.00
5574;BME280;2563;52.242;7.956;2023-02-13T14:44:47;102233.44;;;10.41;100.00
5574;BME280;2563;52.242;7.956;2023-02-13T14:47:18;102241.13;;;10.38;100.00
5574;BME280;2563;52.242;7.956;2023-02-13T14:49:44;102228.19;;;10.28;100.00
5574;BME280;2563;52.242;7.956;2023-02-13T14:52:17;102257.34;;;10.27;100.00
5574;BME280;2563;52.242;7.956;2023-02-13T14:54:49;102264.25;;;10.29;100.00
5574;BME280;2563;52.242;7.956;2023-02-13T14:57:25;102270.25;;;10.31;100.00
5574;BME280;2563;52.242;7.956;2023-02-13T14:59:56;102271.94;;;10.28;100.00
5574;BME280;2563;52.242;7.956;2023-02-13T15:02:33;102266.72;;;10.14;100.00
5574;BME280;2563;52.242;7.956;2023-02-13T15:05:09;102268.34;;;9.96;100.00
5574;BME280;2563;52.242;7.956;2023-02-13T15:07:44;102280.28;;;9.87;100.00
5574;BME280;2563;52.242;7.956;2023-02-13T15:13:00;102293.94;;;9.78;100.00
5574;BME280;2563;52.242;7.956;2023-02-13T15:15:28;102300.78;;;9.79;100.00
5574;BME280;2563;52.242;7.956;2023-02-13T15:18:17;102311.88;;;9.72;100.00
5574;BME280;2563;52.242;7.956;2023-02-13T15:20:43;102310.06;;;9.57;100.00
5574;BME280;2563;52.242;7.956;2023-02-13T15:23:21;102320.28;;;9.49;100.00
5574;BME280;2563;52.242;7.956;2023-02-13T15:25:47;102324.50;;;9.44;100.00
5574;BME280;2563;52.242;7.956;2023-02-13T15:28:23;102335.63;;;9.42;100.00
5574;BME280;2563;52.242;7.956;2023-02-13T15:31:16;102346.69;;;9.34;100.00
5574;BME280;2563;52.242;7.956;2023-02-13T15:33:49;102355.25;;;9.32;100.00
5574;BME280;2563;52.242;7.956;2023-02-13T15:36:17;102358.59;;;9.25;100.00
5574;BME280;2563;52.242;7.956;2023-02-13T15:38:43;102361.06;;;9.15;100.00
5574;BME280;2563;52.242;7.956;2023-02-13T15:41:12;102375.56;;;9.12;100.00
5574;BME280;2563;52.242;7.956;2023-02-13T15:43:46;102376.28;;;9.00;100.00
5574;BME280;2563;52.242;7.956;2023-02-13T15:46:20;102384.78;;;8.94;100.00
5574;BME280;2563;52.242;7.956;2023-02-13T15:48:49;102398.47;;;8.92;100.00
5574;BME280;2563;52.242;7.956;2023-02-13T15:51:24;102403.50;;;8.86;100.00
5574;BME280;2563;52.242;7.956;2023-02-13T15:53:56;102411.22;;;8.86;100.00
5574;BME280;2563;52.242;7.956;2023-02-13T15:56:22;102412.03;;;8.83;100.00
5574;BME280;2563;52.242;7.956;2023-02-13T15:58:48;102414.44;;;8.69;100.00
5574;BME280;2563;52.242;7.956;2023-02-13T16:01:16;102430.63;;;8.65;100.00
5574;BME280;2563;52.242;7.956;2023-02-13T16:03:43;102439.16;;;8.63;100.00
5574;BME280;2563;52.242;7.956;2023-02-13T16:06:17;102426.16;;;8.52;100.00
5574;BME280;2563;52.242;7.956;2023-02-13T16:08:58;102441.38;;;8.40;100.00